createdAt,value
2022-09-23T00:01:20.840Z,18.08
2022-09-23T00:03:49.356Z,18.52
2022-09-23T00:06:24.237Z,17.73
2022-09-23T00:08:52.533Z,18.30
2022-09-23T00:11:25.342Z,19.13
2022-09-23T00:13:58.864Z,20.55
2022-09-23T00:16:32.683Z,17.00
2022-09-23T00:19:02.544Z,19.08
2022-09-23T00:21:30.074Z,17.30
2022-09-23T00:23:57.558Z,13.43
2022-09-23T00:26:25.038Z,16.25
2022-09-23T00:28:52.661Z,16.30
2022-09-23T00:31:27.396Z,14.82
2022-09-23T00:34:00.450Z,15.15
2022-09-23T00:36:29.669Z,13.65
2022-09-23T00:38:57.369Z,15.32
2022-09-23T00:41:26.077Z,15.20
2022-09-23T00:44:00.537Z,14.23
2022-09-23T00:46:43.617Z,13.40
2022-09-23T00:49:20.950Z,15.13
2022-09-23T00:51:59.104Z,13.70
2022-09-23T00:54:27.854Z,13.30
2022-09-23T00:56:57.699Z,12.27
2022-09-23T00:59:26.326Z,13.00
2022-09-23T01:01:57.979Z,13.07
2022-09-23T01:04:28.865Z,14.23
2022-09-23T01:06:56.158Z,14.85
2022-09-23T01:09:25.309Z,15.25
2022-09-23T01:12:24.417Z,17.98
2022-09-23T01:15:12.695Z,15.88
2022-09-23T01:18:23.165Z,13.88
2022-09-23T01:20:59.453Z,13.95
2022-09-23T01:24:07.962Z,15.00
2022-09-23T01:27:19.491Z,14.02
2022-09-23T01:30:08.381Z,15.23
2022-09-23T01:32:53.370Z,14.93
2022-09-23T01:35:44.458Z,13.00
2022-09-23T01:38:51.415Z,12.48
2022-09-23T01:42:07.273Z,11.75
2022-09-23T01:45:05.467Z,15.02
2022-09-23T01:47:39.966Z,16.42
2022-09-23T01:50:35.495Z,13.40
2022-09-23T01:53:12.093Z,17.08
2022-09-23T01:55:48.723Z,18.73
2022-09-23T01:58:38.146Z,18.77
2022-09-23T02:01:08.700Z,19.25
2022-09-23T02:04:04.253Z,18.98
2022-09-23T02:06:50.826Z,20.55
2022-09-23T02:09:28.626Z,20.38
2022-09-23T02:12:06.157Z,18.83
2022-09-23T02:14:52.122Z,17.15
2022-09-23T02:17:39.725Z,19.20
2022-09-23T02:20:08.171Z,18.00
2022-09-23T02:23:08.757Z,20.02
2022-09-23T02:26:00.644Z,16.52
2022-09-23T02:29:13.373Z,15.98
2022-09-23T02:31:50.210Z,20.40
2022-09-23T02:34:50.313Z,16.73
2022-09-23T02:37:54.011Z,17.10
2022-09-23T02:40:53.755Z,16.77
2022-09-23T02:43:52.097Z,16.10
2022-09-23T02:46:20.569Z,18.20
2022-09-23T02:49:11.215Z,17.42
2022-09-23T02:51:40.951Z,20.67
2022-09-23T02:54:14.997Z,25.48
2022-09-23T02:56:42.676Z,26.10
2022-09-23T02:59:12.382Z,28.85
2022-09-23T03:02:20.737Z,25.70
2022-09-23T03:05:34.888Z,21.35
2022-09-23T03:08:22.581Z,19.48
2022-09-23T03:11:07.014Z,18.10
2022-09-23T03:14:07.606Z,18.38
2022-09-23T03:16:58.364Z,19.00
2022-09-23T03:19:45.714Z,17.42
2022-09-23T03:22:21.388Z,17.10
2022-09-23T03:24:54.048Z,17.08
2022-09-23T03:27:28.602Z,18.55
2022-09-23T03:29:57.454Z,17.17
2022-09-23T03:32:29.122Z,17.33
2022-09-23T03:35:01.142Z,15.65
2022-09-23T03:37:37.717Z,16.95
2022-09-23T03:40:30.884Z,13.75
2022-09-23T03:43:01.480Z,15.15
2022-09-23T03:45:34.189Z,17.50
2022-09-23T03:48:03.258Z,15.00
2022-09-23T03:50:30.715Z,18.35
2022-09-23T03:52:58.442Z,21.27
2022-09-23T03:55:25.963Z,18.50
2022-09-23T03:57:53.542Z,20.10
2022-09-23T04:00:20.818Z,18.17
2022-09-23T04:02:49.907Z,16.10
2022-09-23T04:05:18.103Z,16.85
2022-09-23T04:07:45.809Z,15.13
2022-09-23T04:10:13.190Z,14.85
2022-09-23T04:12:40.438Z,13.55
2022-09-23T04:15:08.075Z,14.88
2022-09-23T04:17:35.645Z,14.45
2022-09-23T04:20:04.114Z,14.65
2022-09-23T04:22:33.270Z,13.02
2022-09-23T04:25:00.751Z,10.52
2022-09-23T04:27:27.964Z,14.10
2022-09-23T04:29:55.162Z,14.23
2022-09-23T04:32:22.779Z,9.80
2022-09-23T04:34:49.928Z,10.57
2022-09-23T04:37:17.138Z,9.38
2022-09-23T04:39:44.554Z,10.98
2022-09-23T04:42:11.699Z,10.55
2022-09-23T04:44:39.811Z,9.07
2022-09-23T04:47:07.513Z,11.60
2022-09-23T04:49:34.878Z,14.20
2022-09-23T04:52:02.912Z,17.05
2022-09-23T04:54:30.286Z,15.20
2022-09-23T04:56:57.626Z,15.35
2022-09-23T04:59:25.124Z,13.40
2022-09-23T05:01:54.634Z,13.30
2022-09-23T05:04:21.915Z,11.77
2022-09-23T05:06:49.350Z,12.35
2022-09-23T05:09:17.970Z,12.70
2022-09-23T05:11:45.758Z,16.63
2022-09-23T05:14:13.355Z,17.08
2022-09-23T05:16:41.064Z,19.95
2022-09-23T05:19:08.378Z,20.45
2022-09-23T05:21:36.635Z,20.35
2022-09-23T05:24:04.248Z,22.13
2022-09-23T05:26:32.945Z,19.30
2022-09-23T05:29:00.933Z,22.70
2022-09-23T05:31:30.547Z,25.25
2022-09-23T05:34:04.805Z,26.33
2022-09-23T05:36:38.732Z,21.17
2022-09-23T05:39:08.238Z,22.50
2022-09-23T05:41:37.191Z,19.20
2022-09-23T05:44:04.889Z,19.85
2022-09-23T05:46:33.216Z,23.20
2022-09-23T05:49:03.353Z,22.88
2022-09-23T05:51:32.899Z,21.63
2022-09-23T05:54:04.400Z,22.02
2022-09-23T05:56:34.518Z,23.08
2022-09-23T05:59:03.728Z,21.92
2022-09-23T06:01:35.408Z,19.92
2022-09-23T06:04:06.194Z,19.67
2022-09-23T06:06:37.222Z,20.85
2022-09-23T06:09:06.917Z,18.38
2022-09-23T06:11:36.080Z,17.65
2022-09-23T06:14:04.339Z,19.63
2022-09-23T06:16:35.360Z,51.83
2022-09-23T06:19:06.476Z,25.08
2022-09-23T06:21:40.606Z,19.25
2022-09-23T06:24:09.830Z,18.42
2022-09-23T06:26:38.426Z,19.70
2022-09-23T06:29:12.175Z,18.60
2022-09-23T06:31:42.168Z,21.77
2022-09-23T06:34:14.599Z,19.05
2022-09-23T06:36:45.434Z,19.73
2022-09-23T06:39:15.384Z,17.55
2022-09-23T06:41:44.393Z,18.73
2022-09-23T06:44:13.271Z,20.52
2022-09-23T06:46:40.662Z,25.10
2022-09-23T06:49:08.233Z,23.33
2022-09-23T06:51:36.809Z,24.95
2022-09-23T06:54:04.533Z,26.17
2022-09-23T06:56:37.824Z,32.97
2022-09-23T06:59:09.520Z,40.45
2022-09-23T07:01:37.157Z,44.55
2022-09-23T07:04:04.739Z,50.08
2022-09-23T07:06:32.173Z,51.55
2022-09-23T07:09:01.070Z,57.83
2022-09-23T07:11:28.532Z,30.25
2022-09-23T07:13:55.804Z,21.85
2022-09-23T07:16:23.616Z,18.55
2022-09-23T07:18:52.472Z,21.33
2022-09-23T07:21:19.976Z,21.00
2022-09-23T07:23:51.434Z,21.02
2022-09-23T07:26:20.367Z,17.85
2022-09-23T07:28:47.805Z,16.33
2022-09-23T07:31:30.670Z,14.60
2022-09-23T07:34:01.471Z,16.70
2022-09-23T07:36:32.864Z,14.02
2022-09-23T07:39:04.524Z,14.63
2022-09-23T07:41:33.889Z,14.35
2022-09-23T07:44:01.694Z,14.73
2022-09-23T07:46:33.250Z,38.60
2022-09-23T07:49:02.435Z,33.10
2022-09-23T07:51:36.916Z,44.10
2022-09-23T07:54:13.637Z,33.35
2022-09-23T07:56:42.936Z,22.30
2022-09-23T07:59:20.349Z,16.05
2022-09-23T08:01:52.746Z,11.25
2022-09-23T08:04:31.235Z,15.13
2022-09-23T08:07:04.791Z,15.30
2022-09-23T08:09:41.750Z,13.50
2022-09-23T08:12:15.889Z,12.32
2022-09-23T08:14:45.384Z,12.50
2022-09-23T08:17:14.162Z,11.75
2022-09-23T08:19:41.309Z,14.05
2022-09-23T08:22:08.794Z,17.80
2022-09-23T08:24:36.077Z,16.85
2022-09-23T08:27:03.535Z,12.00
2022-09-23T08:29:30.898Z,11.43
2022-09-23T08:31:58.265Z,9.40
2022-09-23T08:34:27.986Z,8.85
2022-09-23T08:36:55.537Z,8.93
2022-09-23T08:39:23.243Z,7.90
2022-09-23T08:42:21.728Z,11.07
2022-09-23T08:44:56.394Z,9.40
2022-09-23T08:47:32.371Z,13.20
2022-09-23T08:50:18.224Z,9.90
2022-09-23T08:52:59.415Z,8.82
2022-09-23T08:55:46.124Z,8.93
2022-09-23T08:58:44.071Z,11.10
2022-09-23T09:01:31.620Z,10.45
2022-09-23T09:04:02.889Z,8.68
2022-09-23T09:06:52.218Z,18.00
2022-09-23T09:09:36.350Z,14.32
2022-09-23T09:12:34.191Z,15.80
2022-09-23T09:15:13.166Z,14.50
2022-09-23T09:17:51.909Z,15.07
2022-09-23T09:20:39.990Z,13.80
2022-09-23T09:23:37.686Z,12.10
2022-09-23T09:26:11.255Z,11.93
2022-09-23T09:28:59.112Z,11.30
2022-09-23T09:31:37.016Z,12.55
2022-09-23T09:34:38.268Z,11.68
2022-09-23T09:37:35.919Z,15.65
2022-09-23T09:40:04.273Z,16.75
2022-09-23T09:42:40.519Z,12.13
2022-09-23T09:45:45.350Z,11.45
2022-09-23T09:48:50.873Z,13.75
2022-09-23T09:51:25.372Z,12.57
2022-09-23T09:53:52.735Z,11.20
2022-09-23T09:56:31.147Z,10.15
2022-09-23T09:59:25.717Z,12.98
2022-09-23T10:02:25.942Z,9.43
2022-09-23T10:05:46.807Z,8.77
2022-09-23T10:08:32.456Z,8.52
2022-09-23T10:11:04.459Z,9.95
2022-09-23T10:13:32.569Z,17.27
2022-09-23T10:16:04.047Z,20.15
2022-09-23T10:18:48.227Z,8.93
2022-09-23T10:21:26.939Z,8.38
2022-09-23T10:23:58.678Z,9.23
2022-09-23T10:26:34.072Z,8.25
2022-09-23T10:29:48.739Z,8.30
2022-09-23T10:32:33.356Z,8.95
2022-09-23T10:35:09.458Z,8.20
2022-09-23T10:37:59.632Z,8.55
2022-09-23T10:40:50.234Z,8.60
2022-09-23T10:44:32.934Z,8.10
2022-09-23T10:47:37.021Z,6.68
2022-09-23T10:50:24.017Z,5.53
2022-09-23T10:53:15.292Z,10.13
2022-09-23T10:56:10.880Z,5.30
2022-09-23T10:59:02.340Z,4.72
2022-09-23T11:02:08.669Z,4.93
2022-09-23T11:04:47.278Z,5.50
2022-09-23T11:08:04.638Z,4.03
2022-09-23T11:11:13.014Z,12.07
2022-09-23T11:14:06.695Z,6.00
2022-09-23T11:17:14.891Z,4.05
2022-09-23T11:19:58.366Z,3.60
2022-09-23T11:23:03.270Z,3.15
2022-09-23T11:26:34.102Z,2.88
2022-09-23T11:29:35.537Z,2.40
2022-09-23T11:32:17.719Z,2.08
2022-09-23T11:35:12.998Z,1.65
2022-09-23T11:38:01.700Z,2.08
2022-09-23T11:40:36.505Z,2.35
2022-09-23T11:43:39.415Z,2.60
2022-09-23T11:47:07.739Z,2.20
2022-09-23T11:50:02.348Z,3.10
2022-09-23T11:52:41.592Z,2.45
2022-09-23T11:55:31.582Z,2.00
2022-09-23T11:58:22.587Z,2.35
2022-09-23T12:01:07.211Z,1.63
2022-09-23T12:03:53.678Z,2.15
2022-09-23T12:07:03.541Z,1.90
2022-09-23T12:09:58.070Z,2.15
2022-09-23T12:13:10.893Z,3.05
2022-09-23T12:16:07.071Z,2.92
2022-09-23T12:19:01.077Z,2.97
2022-09-23T12:22:03.367Z,2.85
2022-09-23T12:25:28.886Z,2.63
2022-09-23T12:28:05.585Z,2.30
2022-09-23T12:30:37.034Z,2.33
2022-09-23T12:33:10.284Z,2.03
2022-09-23T12:35:44.854Z,2.40
2022-09-23T12:38:38.361Z,2.10
2022-09-23T12:41:27.146Z,19.92
2022-09-23T12:44:15.468Z,15.00
2022-09-23T12:46:47.394Z,2.03
2022-09-23T12:49:29.900Z,1.80
2022-09-23T12:52:18.638Z,1.90
2022-09-23T12:54:49.908Z,1.20
2022-09-23T12:57:35.695Z,1.55
2022-09-23T13:00:12.920Z,1.50
2022-09-23T13:02:47.987Z,0.95
2022-09-23T13:05:37.931Z,1.77
2022-09-23T13:08:24.439Z,1.48
2022-09-23T13:11:05.147Z,1.10
2022-09-23T13:13:44.425Z,1.08
2022-09-23T13:16:13.031Z,1.30
2022-09-23T13:19:04.829Z,1.17
2022-09-23T13:21:47.193Z,1.35
2022-09-23T13:24:41.276Z,1.45
2022-09-23T13:27:36.007Z,1.40
2022-09-23T13:30:25.111Z,1.70
2022-09-23T13:33:11.191Z,2.00
2022-09-23T13:35:46.511Z,1.70
2022-09-23T13:38:26.466Z,1.50
2022-09-23T13:41:10.621Z,1.63
2022-09-23T13:43:44.575Z,1.30
2022-09-23T13:46:27.164Z,1.30
2022-09-23T13:48:56.438Z,16.17
2022-09-23T13:51:33.050Z,2.25
2022-09-23T13:54:03.599Z,2.83
2022-09-23T13:56:33.865Z,2.10
2022-09-23T13:59:37.439Z,1.75
2022-09-23T14:02:12.578Z,1.77
2022-09-23T14:04:40.498Z,1.60
2022-09-23T14:07:12.549Z,1.80
2022-09-23T14:09:50.051Z,1.88
2022-09-23T14:12:22.470Z,2.08
2022-09-23T14:14:54.376Z,2.63
2022-09-23T14:17:23.090Z,2.45
2022-09-23T14:19:51.537Z,2.70
2022-09-23T14:22:28.665Z,2.80
2022-09-23T14:24:57.714Z,2.70
2022-09-23T14:27:36.236Z,2.80
2022-09-23T14:30:05.098Z,2.30
2022-09-23T14:32:33.391Z,2.33
2022-09-23T14:35:04.062Z,5.78
2022-09-23T14:37:57.540Z,3.15
2022-09-23T14:40:32.394Z,2.10
2022-09-23T14:43:24.280Z,3.72
2022-09-23T14:45:56.184Z,3.72
2022-09-23T14:48:34.762Z,3.38
2022-09-23T14:51:07.464Z,2.38
2022-09-23T14:53:45.803Z,2.63
2022-09-23T14:56:17.826Z,2.05
2022-09-23T14:58:58.119Z,2.20
2022-09-23T15:01:31.473Z,2.42
2022-09-23T15:04:16.132Z,3.13
2022-09-23T15:06:53.608Z,3.40
2022-09-23T15:09:27.121Z,3.35
2022-09-23T15:12:01.411Z,12.48
2022-09-23T15:14:38.814Z,2.65
2022-09-23T15:17:25.780Z,2.25
2022-09-23T15:20:18.525Z,2.00
2022-09-23T15:22:50.699Z,2.40
2022-09-23T15:25:22.747Z,2.30
2022-09-23T15:28:15.963Z,2.25
2022-09-23T15:30:43.416Z,2.30
2022-09-23T15:33:17.653Z,2.40
2022-09-23T15:35:49.493Z,2.50
2022-09-23T15:38:17.872Z,3.10
2022-09-23T15:40:46.062Z,2.53
2022-09-23T15:43:23.433Z,2.50
2022-09-23T15:46:05.117Z,2.83
2022-09-23T15:48:52.356Z,3.17
2022-09-23T15:51:23.329Z,3.10
2022-09-23T15:53:55.227Z,3.03
2022-09-23T15:56:24.651Z,2.88
2022-09-23T15:58:51.881Z,3.40
2022-09-23T16:01:30.346Z,3.42
2022-09-23T16:04:00.268Z,3.20
2022-09-23T16:06:28.155Z,3.08
2022-09-23T16:08:55.992Z,3.03
2022-09-23T16:11:31.826Z,3.40
2022-09-23T16:14:00.840Z,3.75
2022-09-23T16:16:28.977Z,3.65
2022-09-23T16:18:56.240Z,4.47
2022-09-23T16:21:28.691Z,4.10
2022-09-23T16:23:57.386Z,3.60
2022-09-23T16:26:34.750Z,3.90
2022-09-23T16:29:02.630Z,3.67
2022-09-23T16:31:31.352Z,4.93
2022-09-23T16:34:02.198Z,4.47
2022-09-23T16:36:41.138Z,4.30
2022-09-23T16:39:12.448Z,4.18
2022-09-23T16:41:42.908Z,4.32
2022-09-23T16:44:12.581Z,4.63
2022-09-23T16:46:42.939Z,4.82
2022-09-23T16:49:12.226Z,4.75
2022-09-23T16:51:40.335Z,4.22
2022-09-23T16:54:11.925Z,4.20
2022-09-23T16:56:46.472Z,4.80
2022-09-23T16:59:15.672Z,4.13
2022-09-23T17:02:02.602Z,3.88
2022-09-23T17:04:29.963Z,3.47
2022-09-23T17:06:57.897Z,3.63
2022-09-23T17:09:30.259Z,6.07
2022-09-23T17:12:18.454Z,5.28
2022-09-23T17:14:45.954Z,5.32
2022-09-23T17:17:13.214Z,5.70
2022-09-23T17:19:41.562Z,4.53
2022-09-23T17:22:10.024Z,5.72
2022-09-23T17:24:37.201Z,5.70
2022-09-23T17:27:04.443Z,4.60
2022-09-23T17:29:32.088Z,5.43
2022-09-23T17:31:59.420Z,4.53
2022-09-23T17:34:28.886Z,4.68
2022-09-23T17:36:56.462Z,5.75
2022-09-23T17:39:23.698Z,5.85
2022-09-23T17:41:51.360Z,5.47
2022-09-23T17:44:18.994Z,4.65
2022-09-23T17:46:47.259Z,6.00
2022-09-23T17:49:15.128Z,5.85
2022-09-23T17:51:42.934Z,8.65
2022-09-23T17:54:11.115Z,8.88
2022-09-23T17:56:38.356Z,9.02
2022-09-23T17:59:05.889Z,8.52
2022-09-23T18:01:35.230Z,9.20
2022-09-23T18:04:05.806Z,8.95
2022-09-23T18:06:37.310Z,8.65
2022-09-23T18:09:07.800Z,7.80
2022-09-23T18:11:38.774Z,8.32
2022-09-23T18:14:13.139Z,9.55
2022-09-23T18:16:43.224Z,8.77
2022-09-23T18:19:14.400Z,8.68
2022-09-23T18:21:47.069Z,8.07
2022-09-23T18:24:31.827Z,8.10
2022-09-23T18:27:01.367Z,8.75
2022-09-23T18:29:28.807Z,7.68
2022-09-23T18:31:56.482Z,6.80
2022-09-23T18:34:24.543Z,4.97
2022-09-23T18:36:51.988Z,4.78
2022-09-23T18:39:19.533Z,4.10
2022-09-23T18:41:49.619Z,4.72
2022-09-23T18:44:17.324Z,6.60
2022-09-23T18:46:44.898Z,5.82
2022-09-23T18:49:50.805Z,5.50
2022-09-23T18:52:18.276Z,5.18
2022-09-23T18:54:46.970Z,5.05
2022-09-23T18:57:14.748Z,4.55
2022-09-23T18:59:42.228Z,4.60
2022-09-23T19:02:10.044Z,4.22
2022-09-23T19:04:38.315Z,3.92
2022-09-23T19:07:07.114Z,4.03
2022-09-23T19:09:34.654Z,4.15
2022-09-23T19:12:03.471Z,3.85
2022-09-23T19:14:30.692Z,4.47
2022-09-23T19:16:59.054Z,5.43
2022-09-23T19:19:26.324Z,6.60
2022-09-23T19:21:54.903Z,7.25
2022-09-23T19:24:22.780Z,7.55
2022-09-23T19:26:50.477Z,12.25
2022-09-23T19:29:22.154Z,9.82
2022-09-23T19:31:51.068Z,6.43
2022-09-23T19:34:26.105Z,4.75
2022-09-23T19:36:59.995Z,4.50
2022-09-23T19:39:31.807Z,6.40
2022-09-23T19:41:59.494Z,10.10
2022-09-23T19:44:28.694Z,11.18
2022-09-23T19:46:57.544Z,11.50
2022-09-23T19:49:26.294Z,8.57
2022-09-23T19:51:56.056Z,7.20
2022-09-23T19:54:26.694Z,6.47
2022-09-23T19:56:54.433Z,7.22
2022-09-23T19:59:21.728Z,8.00
2022-09-23T20:01:49.402Z,6.45
2022-09-23T20:04:17.310Z,5.40
2022-09-23T20:06:46.158Z,5.68
2022-09-23T20:09:13.775Z,4.95
2022-09-23T20:11:43.190Z,8.07
2022-09-23T20:14:11.142Z,15.27
2022-09-23T20:16:39.518Z,13.82
2022-09-23T20:19:07.214Z,10.95
2022-09-23T20:21:35.491Z,9.55
2022-09-23T20:24:07.627Z,7.85
2022-09-23T20:26:54.247Z,6.50
2022-09-23T20:29:22.073Z,7.63
2022-09-23T20:31:49.771Z,10.95
2022-09-23T20:34:17.071Z,11.50
2022-09-23T20:36:44.340Z,10.90
2022-09-23T20:39:11.792Z,14.52
2022-09-23T20:41:39.887Z,13.48
2022-09-23T20:44:14.011Z,9.63
2022-09-23T20:46:48.477Z,6.80
2022-09-23T20:49:20.950Z,5.38
2022-09-23T20:51:49.416Z,5.78
2022-09-23T20:54:21.046Z,5.53
2022-09-23T20:56:48.504Z,6.10
2022-09-23T20:59:18.012Z,7.18
2022-09-23T21:01:45.596Z,7.65
2022-09-23T21:04:13.315Z,6.60
2022-09-23T21:06:40.748Z,7.22
2022-09-23T21:09:08.187Z,10.00
2022-09-23T21:11:35.742Z,10.73
2022-09-23T21:14:03.394Z,11.18
2022-09-23T21:16:31.102Z,12.77
2022-09-23T21:19:00.050Z,17.13
2022-09-23T21:21:27.570Z,18.15
2022-09-23T21:23:56.491Z,17.20
2022-09-23T21:26:31.424Z,16.58
2022-09-23T21:29:01.430Z,18.70
2022-09-23T21:31:38.389Z,17.80
2022-09-23T21:34:09.203Z,18.98
2022-09-23T21:36:39.399Z,18.88
2022-09-23T21:39:09.377Z,19.65
2022-09-23T21:41:37.910Z,19.70
2022-09-23T21:44:08.319Z,21.05
2022-09-23T21:46:36.988Z,20.55
2022-09-23T21:49:05.305Z,19.92
2022-09-23T21:51:40.851Z,20.45
2022-09-23T21:54:15.737Z,18.60
2022-09-23T21:56:44.613Z,19.55
2022-09-23T21:59:12.230Z,19.85
2022-09-23T22:01:44.560Z,20.30
2022-09-23T22:04:17.761Z,23.13
2022-09-23T22:06:46.628Z,20.85
2022-09-23T22:09:18.663Z,20.52
2022-09-23T22:12:05.240Z,22.10
2022-09-23T22:14:33.120Z,21.55
2022-09-23T22:17:03.871Z,21.50
2022-09-23T22:19:40.223Z,21.60
2022-09-23T22:22:15.948Z,21.13
2022-09-23T22:24:45.842Z,22.33
2022-09-23T22:27:17.029Z,22.30
2022-09-23T22:30:02.517Z,25.90
2022-09-23T22:32:41.815Z,23.25
2022-09-23T22:35:18.880Z,23.85
2022-09-23T22:37:48.063Z,26.48
2022-09-23T22:40:16.425Z,23.33
2022-09-23T22:42:44.231Z,26.45
2022-09-23T22:45:13.113Z,27.63
2022-09-23T22:47:43.606Z,22.55
2022-09-23T22:50:12.235Z,24.02
2022-09-23T22:52:40.523Z,26.08
2022-09-23T22:55:08.508Z,24.95
2022-09-23T22:57:36.776Z,27.65
2022-09-23T23:00:06.855Z,26.90
2022-09-23T23:02:34.412Z,28.65
2022-09-23T23:05:02.289Z,27.83
2022-09-23T23:07:29.759Z,26.25
2022-09-23T23:09:57.036Z,25.50
2022-09-23T23:12:24.299Z,28.27
2022-09-23T23:14:51.672Z,29.17
2022-09-23T23:17:18.979Z,31.15
2022-09-23T23:19:47.540Z,32.00
2022-09-23T23:22:14.927Z,30.95
2022-09-23T23:24:42.226Z,33.28
2022-09-23T23:27:09.475Z,28.52
2022-09-23T23:29:36.868Z,24.42
2022-09-23T23:32:05.170Z,22.10
2022-09-23T23:34:32.363Z,26.02
2022-09-23T23:36:59.713Z,23.58
2022-09-23T23:39:26.921Z,20.77
2022-09-23T23:41:56.890Z,17.48
2022-09-23T23:44:26.577Z,18.60
2022-09-23T23:46:55.177Z,20.27
2022-09-23T23:49:23.084Z,19.75
2022-09-23T23:51:50.523Z,20.23
2022-09-23T23:54:17.809Z,20.10
2022-09-23T23:56:45.270Z,24.90
2022-09-23T23:59:12.853Z,26.90
